sensor_id;sensor_type;location;lat;lon;timestamp;pressure;altitude;pressure_sealevel;temperature;humidity
55466;BME280;41329;41.594;23.810;2024-01-25T00:01:22;95711.66;;;2.09;60.83
55466;BME280;41329;41.594;23.810;2024-01-25T00:03:47;95735.28;;;2.27;60.16
55466;BME280;41329;41.594;23.810;2024-01-25T00:06:13;95727.09;;;2.27;59.96
55466;BME280;41329;41.594;23.810;2024-01-25T00:08:38;95723.47;;;2.18;60.35
55466;BME280;41329;41.594;23.810;2024-01-25T00:11:04;95710.25;;;2.12;60.57
55466;BME280;41329;41.594;23.810;2024-01-25T00:13:30;95731.44;;;2.28;60.76
55466;BME280;41329;41.594;23.810;2024-01-25T00:15:55;95730.81;;;2.31;61.09
55466;BME280;41329;41.594;23.810;2024-01-25T00:18:21;95716.03;;;2.32;61.07
55466;BME280;41329;41.594;23.810;2024-01-25T00:20:46;95693.34;;;2.23;61.29
55466;BME280;41329;41.594;23.810;2024-01-25T00:23:12;95684.03;;;2.24;61.55
55466;BME280;41329;41.594;23.810;2024-01-25T00:25:37;95709.94;;;2.35;61.59
55466;BME280;41329;41.594;23.810;2024-01-25T00:28:03;95714.34;;;2.45;61.72
55466;BME280;41329;41.594;23.810;2024-01-25T00:30:28;95711.91;;;2.43;61.30
55466;BME280;41329;41.594;23.810;2024-01-25T00:32:54;95694.19;;;2.32;61.21
55466;BME280;41329;41.594;23.810;2024-01-25T00:35:19;95713.44;;;2.27;60.88
55466;BME280;41329;41.594;23.810;2024-01-25T00:37:45;95717.78;;;2.28;61.12
55466;BME280;41329;41.594;23.810;2024-01-25T00:40:11;95710.19;;;2.25;61.41
55466;BME280;41329;41.594;23.810;2024-01-25T00:42:43;95729.69;;;2.32;61.44
55466;BME280;41329;41.594;23.810;2024-01-25T00:45:10;95730.16;;;2.34;61.34
55466;BME280;41329;41.594;23.810;2024-01-25T00:47:36;95722.41;;;2.28;61.42
55466;BME280;41329;41.594;23.810;2024-01-25T00:50:02;95709.59;;;2.28;61.51
55466;BME280;41329;41.594;23.810;2024-01-25T00:52:28;95724.41;;;2.36;61.38
55466;BME280;41329;41.594;23.810;2024-01-25T00:54:54;95741.03;;;2.26;61.32
55466;BME280;41329;41.594;23.810;2024-01-25T00:57:19;95737.06;;;2.10;62.17
55466;BME280;41329;41.594;23.810;2024-01-25T00:59:45;95750.00;;;2.04;62.17
55466;BME280;41329;41.594;23.810;2024-01-25T01:02:13;95734.66;;;1.95;62.71
55466;BME280;41329;41.594;23.810;2024-01-25T01:04:40;95734.31;;;2.10;63.20
55466;BME280;41329;41.594;23.810;2024-01-25T01:07:06;95726.63;;;2.12;63.85
55466;BME280;41329;41.594;23.810;2024-01-25T01:09:32;95739.53;;;2.20;63.67
55466;BME280;41329;41.594;23.810;2024-01-25T01:11:57;95732.47;;;2.19;63.59
55466;BME280;41329;41.594;23.810;2024-01-25T01:14:23;95720.63;;;2.23;63.59
55466;BME280;41329;41.594;23.810;2024-01-25T01:16:48;95710.59;;;2.10;63.67
55466;BME280;41329;41.594;23.810;2024-01-25T01:19:16;95706.72;;;2.11;63.71
55466;BME280;41329;41.594;23.810;2024-01-25T01:21:41;95693.00;;;2.03;63.80
55466;BME280;41329;41.594;23.810;2024-01-25T01:24:09;95698.84;;;2.10;64.04
55466;BME280;41329;41.594;23.810;2024-01-25T01:26:35;95686.78;;;1.89;64.09
55466;BME280;41329;41.594;23.810;2024-01-25T01:29:01;95670.34;;;1.80;64.45
55466;BME280;41329;41.594;23.810;2024-01-25T01:31:27;95657.09;;;1.87;64.63
55466;BME280;41329;41.594;23.810;2024-01-25T01:33:52;95669.84;;;1.78;64.76
55466;BME280;41329;41.594;23.810;2024-01-25T01:36:17;95688.53;;;1.85;65.03
55466;BME280;41329;41.594;23.810;2024-01-25T01:38:43;95666.31;;;1.78;64.83
55466;BME280;41329;41.594;23.810;2024-01-25T01:41:10;95666.97;;;1.97;64.70
55466;BME280;41329;41.594;23.810;2024-01-25T01:43:36;95645.13;;;1.97;64.33
55466;BME280;41329;41.594;23.810;2024-01-25T01:46:06;95599.97;;;1.69;64.04
55466;BME280;41329;41.594;23.810;2024-01-25T01:48:34;95627.25;;;1.91;63.98
55466;BME280;41329;41.594;23.810;2024-01-25T01:51:00;95644.19;;;2.01;63.95
55466;BME280;41329;41.594;23.810;2024-01-25T01:53:26;95636.66;;;1.98;63.95
55466;BME280;41329;41.594;23.810;2024-01-25T01:55:51;95640.47;;;1.97;63.96
55466;BME280;41329;41.594;23.810;2024-01-25T01:58:18;95662.63;;;1.96;63.89
55466;BME280;41329;41.594;23.810;2024-01-25T02:00:45;95626.69;;;1.80;63.47
55466;BME280;41329;41.594;23.810;2024-01-25T02:03:12;95653.44;;;1.92;63.24
55466;BME280;41329;41.594;23.810;2024-01-25T02:05:37;95648.78;;;1.92;63.03
55466;BME280;41329;41.594;23.810;2024-01-25T02:08:04;95642.31;;;1.88;63.00
55466;BME280;41329;41.594;23.810;2024-01-25T02:10:30;95640.72;;;1.87;63.24
55466;BME280;41329;41.594;23.810;2024-01-25T02:12:55;95648.78;;;1.92;63.53
55466;BME280;41329;41.594;23.810;2024-01-25T02:15:20;95654.19;;;1.84;63.51
55466;BME280;41329;41.594;23.810;2024-01-25T02:17:46;95623.22;;;1.66;63.56
55466;BME280;41329;41.594;23.810;2024-01-25T02:20:12;95623.09;;;1.71;63.38
55466;BME280;41329;41.594;23.810;2024-01-25T02:22:37;95642.63;;;1.87;63.67
55466;BME280;41329;41.594;23.810;2024-01-25T02:25:03;95655.19;;;1.88;64.09
55466;BME280;41329;41.594;23.810;2024-01-25T02:27:28;95655.66;;;1.90;63.87
55466;BME280;41329;41.594;23.810;2024-01-25T02:29:53;95602.84;;;1.64;63.73
55466;BME280;41329;41.594;23.810;2024-01-25T02:32:19;95631.41;;;1.88;63.87
55466;BME280;41329;41.594;23.810;2024-01-25T02:34:44;95620.31;;;1.85;64.13
55466;BME280;41329;41.594;23.810;2024-01-25T02:37:10;95615.25;;;1.92;64.31
55466;BME280;41329;41.594;23.810;2024-01-25T02:39:37;95620.31;;;1.85;64.34
55466;BME280;41329;41.594;23.810;2024-01-25T02:42:02;95618.38;;;1.63;64.51
55466;BME280;41329;41.594;23.810;2024-01-25T02:44:28;95628.25;;;1.73;64.40
55466;BME280;41329;41.594;23.810;2024-01-25T02:46:53;95595.97;;;1.66;64.32
55466;BME280;41329;41.594;23.810;2024-01-25T02:49:19;95605.56;;;1.64;64.47
55466;BME280;41329;41.594;23.810;2024-01-25T02:51:44;95633.66;;;1.64;65.12
55466;BME280;41329;41.594;23.810;2024-01-25T02:54:09;95617.94;;;1.70;64.67
55466;BME280;41329;41.594;23.810;2024-01-25T02:56:35;95588.81;;;1.57;64.28
55466;BME280;41329;41.594;23.810;2024-01-25T02:59:01;95613.44;;;1.65;64.97
55466;BME280;41329;41.594;23.810;2024-01-25T03:01:26;95621.75;;;1.60;64.88
55466;BME280;41329;41.594;23.810;2024-01-25T03:03:53;95603.69;;;1.51;65.36
55466;BME280;41329;41.594;23.810;2024-01-25T03:06:18;95597.81;;;1.57;65.49
55466;BME280;41329;41.594;23.810;2024-01-25T03:08:43;95603.66;;;1.64;65.64
55466;BME280;41329;41.594;23.810;2024-01-25T03:11:09;95577.91;;;1.57;65.72
55466;BME280;41329;41.594;23.810;2024-01-25T03:13:34;95585.78;;;1.58;65.86
55466;BME280;41329;41.594;23.810;2024-01-25T03:16:00;95598.94;;;1.56;66.06
55466;BME280;41329;41.594;23.810;2024-01-25T03:18:25;95595.69;;;1.54;66.05
55466;BME280;41329;41.594;23.810;2024-01-25T03:20:51;95581.94;;;1.59;65.85
55466;BME280;41329;41.594;23.810;2024-01-25T03:23:17;95569.13;;;1.60;65.93
55466;BME280;41329;41.594;23.810;2024-01-25T03:25:42;95549.91;;;1.43;65.88
55466;BME280;41329;41.594;23.810;2024-01-25T03:28:07;95581.84;;;1.64;66.40
55466;BME280;41329;41.594;23.810;2024-01-25T03:30:34;95579.22;;;1.59;66.40
55466;BME280;41329;41.594;23.810;2024-01-25T03:33:00;95590.75;;;1.78;66.51
55466;BME280;41329;41.594;23.810;2024-01-25T03:35:25;95576.72;;;1.71;66.22
55466;BME280;41329;41.594;23.810;2024-01-25T03:37:51;95602.69;;;1.91;65.79
55466;BME280;41329;41.594;23.810;2024-01-25T03:40:16;95572.69;;;1.91;65.98
55466;BME280;41329;41.594;23.810;2024-01-25T03:42:42;95575.94;;;1.93;65.86
55466;BME280;41329;41.594;23.810;2024-01-25T03:45:08;95554.88;;;1.93;65.85
55466;BME280;41329;41.594;23.810;2024-01-25T03:47:33;95560.41;;;2.02;65.75
55466;BME280;41329;41.594;23.810;2024-01-25T03:49:58;95500.81;;;1.65;65.66
55466;BME280;41329;41.594;23.810;2024-01-25T03:52:25;95559.69;;;1.88;65.31
55466;BME280;41329;41.594;23.810;2024-01-25T03:54:50;95550.31;;;1.80;65.21
55466;BME280;41329;41.594;23.810;2024-01-25T03:57:16;95560.25;;;1.54;65.69
55466;BME280;41329;41.594;23.810;2024-01-25T03:59:41;95564.78;;;1.59;65.92
55466;BME280;41329;41.594;23.810;2024-01-25T04:02:06;95560.63;;;1.61;65.88
55466;BME280;41329;41.594;23.810;2024-01-25T04:04:32;95542.47;;;1.57;65.89
55466;BME280;41329;41.594;23.810;2024-01-25T04:06:57;95561.81;;;1.69;66.07
55466;BME280;41329;41.594;23.810;2024-01-25T04:09:23;95547.84;;;1.70;66.25
55466;BME280;41329;41.594;23.810;2024-01-25T04:11:48;95537.56;;;1.67;66.20
55466;BME280;41329;41.594;23.810;2024-01-25T04:14:14;95567.81;;;1.79;66.39
55466;BME280;41329;41.594;23.810;2024-01-25T04:16:41;95578.25;;;1.77;66.37
55466;BME280;41329;41.594;23.810;2024-01-25T04:19:06;95554.75;;;1.68;66.37
55466;BME280;41329;41.594;23.810;2024-01-25T04:21:32;95543.22;;;1.71;66.87
55466;BME280;41329;41.594;23.810;2024-01-25T04:23:57;95542.94;;;1.81;66.77
55466;BME280;41329;41.594;23.810;2024-01-25T04:26:23;95559.69;;;1.88;66.68
55466;BME280;41329;41.594;23.810;2024-01-25T04:28:48;95558.13;;;1.95;66.61
55466;BME280;41329;41.594;23.810;2024-01-25T04:31:14;95572.75;;;1.99;66.61
55466;BME280;41329;41.594;23.810;2024-01-25T04:33:39;95562.72;;;1.86;66.69
55466;BME280;41329;41.594;23.810;2024-01-25T04:36:05;95563.44;;;2.00;66.41
55466;BME280;41329;41.594;23.810;2024-01-25T04:38:31;95526.00;;;1.92;66.21
55466;BME280;41329;41.594;23.810;2024-01-25T04:40:56;95533.34;;;2.14;66.17
55466;BME280;41329;41.594;23.810;2024-01-25T04:43:21;95540.78;;;1.91;66.44
55466;BME280;41329;41.594;23.810;2024-01-25T04:45:47;95533.06;;;1.63;66.50
55466;BME280;41329;41.594;23.810;2024-01-25T04:48:13;95570.09;;;1.86;67.01
55466;BME280;41329;41.594;23.810;2024-01-25T04:50:38;95545.00;;;1.75;67.15
55466;BME280;41329;41.594;23.810;2024-01-25T04:53:05;95550.69;;;1.87;67.20
55466;BME280;41329;41.594;23.810;2024-01-25T04:55:30;95519.59;;;1.66;67.02
55466;BME280;41329;41.594;23.810;2024-01-25T04:57:56;95489.19;;;1.51;66.85
55466;BME280;41329;41.594;23.810;2024-01-25T05:00:22;95533.41;;;1.70;67.23
55466;BME280;41329;41.594;23.810;2024-01-25T05:02:48;95512.44;;;1.48;67.57
55466;BME280;41329;41.594;23.810;2024-01-25T05:05:13;95533.66;;;1.60;67.49
55466;BME280;41329;41.594;23.810;2024-01-25T05:07:39;95550.47;;;1.53;67.63
55466;BME280;41329;41.594;23.810;2024-01-25T05:10:05;95535.41;;;1.56;67.59
55466;BME280;41329;41.594;23.810;2024-01-25T05:12:31;95539.50;;;1.67;67.66
55466;BME280;41329;41.594;23.810;2024-01-25T05:14:57;95536.56;;;1.63;67.82
55466;BME280;41329;41.594;23.810;2024-01-25T05:17:23;95559.88;;;1.69;67.95
55466;BME280;41329;41.594;23.810;2024-01-25T05:19:48;95527.97;;;1.48;67.86
55466;BME280;41329;41.594;23.810;2024-01-25T05:22:13;95574.44;;;1.65;67.90
55466;BME280;41329;41.594;23.810;2024-01-25T05:24:39;95569.72;;;1.35;68.32
55466;BME280;41329;41.594;23.810;2024-01-25T05:27:04;95559.72;;;1.30;68.24
55466;BME280;41329;41.594;23.810;2024-01-25T05:29:30;95541.63;;;1.12;68.25
55466;BME280;41329;41.594;23.810;2024-01-25T05:31:55;95572.25;;;1.31;68.69
55466;BME280;41329;41.594;23.810;2024-01-25T05:34:21;95582.44;;;1.39;69.11
55466;BME280;41329;41.594;23.810;2024-01-25T05:36:46;95584.53;;;1.42;69.14
55466;BME280;41329;41.594;23.810;2024-01-25T05:39:13;95576.66;;;1.41;69.09
55466;BME280;41329;41.594;23.810;2024-01-25T05:41:38;95566.44;;;1.46;68.99
55466;BME280;41329;41.594;23.810;2024-01-25T05:44:04;95555.22;;;1.26;69.12
55466;BME280;41329;41.594;23.810;2024-01-25T05:46:29;95576.97;;;1.39;68.90
55466;BME280;41329;41.594;23.810;2024-01-25T05:48:55;95598.88;;;1.34;69.02
55466;BME280;41329;41.594;23.810;2024-01-25T05:51:20;95611.41;;;1.35;68.95
55466;BME280;41329;41.594;23.810;2024-01-25T05:53:46;95590.78;;;1.21;68.88
55466;BME280;41329;41.594;23.810;2024-01-25T05:56:11;95591.81;;;1.33;68.62
55466;BME280;41329;41.594;23.810;2024-01-25T05:58:36;95593.13;;;1.36;68.92
55466;BME280;41329;41.594;23.810;2024-01-25T06:01:02;95555.22;;;1.26;69.26
55466;BME280;41329;41.594;23.810;2024-01-25T06:03:28;95546.66;;;1.19;69.22
55466;BME280;41329;41.594;23.810;2024-01-25T06:05:53;95541.03;;;1.15;69.52
55466;BME280;41329;41.594;23.810;2024-01-25T06:08:19;95535.63;;;1.24;69.61
55466;BME280;41329;41.594;23.810;2024-01-25T06:10:44;95566.81;;;1.31;69.80
55466;BME280;41329;41.594;23.810;2024-01-25T06:13:09;95563.72;;;1.46;69.83
55466;BME280;41329;41.594;23.810;2024-01-25T06:15:35;95559.38;;;1.45;69.60
55466;BME280;41329;41.594;23.810;2024-01-25T06:18:00;95555.63;;;1.55;69.45
55466;BME280;41329;41.594;23.810;2024-01-25T06:20:26;95542.78;;;1.55;69.29
55466;BME280;41329;41.594;23.810;2024-01-25T06:22:51;95536.78;;;1.67;69.30
55466;BME280;41329;41.594;23.810;2024-01-25T06:25:17;95547.03;;;1.70;69.43
55466;BME280;41329;41.594;23.810;2024-01-25T06:27:42;95551.97;;;1.81;69.20
55466;BME280;41329;41.594;23.810;2024-01-25T06:30:09;95562.91;;;1.90;68.85
55466;BME280;41329;41.594;23.810;2024-01-25T06:32:34;95555.22;;;1.92;68.91
55466;BME280;41329;41.594;23.810;2024-01-25T06:34:59;95548.78;;;1.88;68.75
55466;BME280;41329;41.594;23.810;2024-01-25T06:37:25;95533.59;;;1.73;68.79
55466;BME280;41329;41.594;23.810;2024-01-25T06:39:50;95550.88;;;1.69;68.81
55466;BME280;41329;41.594;23.810;2024-01-25T06:42:16;95519.97;;;1.73;68.76
55466;BME280;41329;41.594;23.810;2024-01-25T06:44:41;95566.25;;;1.87;68.76
55466;BME280;41329;41.594;23.810;2024-01-25T06:47:06;95541.69;;;1.87;68.77
55466;BME280;41329;41.594;23.810;2024-01-25T06:49:32;95541.25;;;1.93;68.85
55466;BME280;41329;41.594;23.810;2024-01-25T06:51:57;95520.06;;;1.90;68.92
55466;BME280;41329;41.594;23.810;2024-01-25T06:54:23;95548.81;;;1.96;68.86
55466;BME280;41329;41.594;23.810;2024-01-25T06:56:48;95524.25;;;1.96;68.68
55466;BME280;41329;41.594;23.810;2024-01-25T06:59:16;95539.84;;;1.96;68.87
55466;BME280;41329;41.594;23.810;2024-01-25T07:01:42;95516.44;;;2.03;68.74
55466;BME280;41329;41.594;23.810;2024-01-25T07:04:07;95516.34;;;1.86;68.88
55466;BME280;41329;41.594;23.810;2024-01-25T07:06:33;95549.25;;;1.90;68.99
55466;BME280;41329;41.594;23.810;2024-01-25T07:08:58;95514.84;;;1.80;68.63
55466;BME280;41329;41.594;23.810;2024-01-25T07:11:23;95522.97;;;1.94;68.65
55466;BME280;41329;41.594;23.810;2024-01-25T07:13:50;95500.16;;;1.90;69.34
55466;BME280;41329;41.594;23.810;2024-01-25T07:16:16;95510.81;;;2.00;69.39
55466;BME280;41329;41.594;23.810;2024-01-25T07:18:41;95502.81;;;2.12;69.28
55466;BME280;41329;41.594;23.810;2024-01-25T07:21:07;95489.38;;;2.15;69.08
55466;BME280;41329;41.594;23.810;2024-01-25T07:23:33;95514.94;;;2.28;68.69
55466;BME280;41329;41.594;23.810;2024-01-25T07:25:59;95519.19;;;2.12;69.03
55466;BME280;41329;41.594;23.810;2024-01-25T07:28:24;95540.91;;;1.86;69.01
55466;BME280;41329;41.594;23.810;2024-01-25T07:30:50;95486.75;;;1.49;69.32
55466;BME280;41329;41.594;23.810;2024-01-25T07:33:16;95502.63;;;1.69;69.98
55466;BME280;41329;41.594;23.810;2024-01-25T07:35:42;95500.13;;;1.81;70.42
55466;BME280;41329;41.594;23.810;2024-01-25T07:38:14;95495.06;;;1.97;70.73
55466;BME280;41329;41.594;23.810;2024-01-25T07:40:40;95481.72;;;1.95;70.72
55466;BME280;41329;41.594;23.810;2024-01-25T07:43:06;95486.75;;;2.02;71.16
55466;BME280;41329;41.594;23.810;2024-01-25T07:45:32;95488.56;;;2.15;71.72
55466;BME280;41329;41.594;23.810;2024-01-25T07:47:58;95497.66;;;2.41;72.43
55466;BME280;41329;41.594;23.810;2024-01-25T07:50:23;95500.38;;;2.41;71.48
55466;BME280;41329;41.594;23.810;2024-01-25T07:52:49;95507.53;;;2.67;71.77
55466;BME280;41329;41.594;23.810;2024-01-25T07:55:15;95522.19;;;2.88;71.81
55466;BME280;41329;41.594;23.810;2024-01-25T07:57:41;95495.50;;;2.77;70.37
55466;BME280;41329;41.594;23.810;2024-01-25T08:00:07;95492.94;;;2.80;69.75
55466;BME280;41329;41.594;23.810;2024-01-25T08:02:34;95467.69;;;2.83;70.44
55466;BME280;41329;41.594;23.810;2024-01-25T08:05:00;95485.75;;;3.10;69.94
55466;BME280;41329;41.594;23.810;2024-01-25T08:07:25;95492.50;;;3.12;68.70
55466;BME280;41329;41.594;23.810;2024-01-25T08:09:51;95427.69;;;2.96;68.61
55466;BME280;41329;41.594;23.810;2024-01-25T08:12:18;95475.59;;;2.85;68.38
55466;BME280;41329;41.594;23.810;2024-01-25T08:14:43;95467.72;;;3.00;68.94
55466;BME280;41329;41.594;23.810;2024-01-25T08:17:09;95476.88;;;3.13;68.78
55466;BME280;41329;41.594;23.810;2024-01-25T08:19:35;95464.16;;;3.17;68.21
55466;BME280;41329;41.594;23.810;2024-01-25T08:22:00;95472.06;;;3.27;68.36
55466;BME280;41329;41.594;23.810;2024-01-25T08:24:25;95484.28;;;3.46;69.81
55466;BME280;41329;41.594;23.810;2024-01-25T08:26:51;95480.56;;;3.68;69.78
55466;BME280;41329;41.594;23.810;2024-01-25T08:29:16;95461.88;;;3.78;69.66
55466;BME280;41329;41.594;23.810;2024-01-25T08:31:42;95479.47;;;4.06;69.46
55466;BME280;41329;41.594;23.810;2024-01-25T08:34:07;95477.78;;;4.31;69.82
55466;BME280;41329;41.594;23.810;2024-01-25T08:36:33;95463.06;;;4.44;69.79
55466;BME280;41329;41.594;23.810;2024-01-25T08:38:58;95469.06;;;4.37;68.07
55466;BME280;41329;41.594;23.810;2024-01-25T08:41:23;95465.22;;;4.59;67.13
55466;BME280;41329;41.594;23.810;2024-01-25T08:43:49;95449.09;;;4.66;66.71
55466;BME280;41329;41.594;23.810;2024-01-25T08:46:14;95449.59;;;4.88;67.90
55466;BME280;41329;41.594;23.810;2024-01-25T08:48:41;95471.28;;;5.22;66.04
55466;BME280;41329;41.594;23.810;2024-01-25T08:51:07;95474.31;;;5.41;66.49
55466;BME280;41329;41.594;23.810;2024-01-25T08:53:33;95444.63;;;5.76;67.75
55466;BME280;41329;41.594;23.810;2024-01-25T08:55:59;95449.44;;;6.11;67.08
55466;BME280;41329;41.594;23.810;2024-01-25T08:58:24;95423.03;;;6.31;64.77
55466;BME280;41329;41.594;23.810;2024-01-25T09:00:50;95398.06;;;6.48;62.90
55466;BME280;41329;41.594;23.810;2024-01-25T09:03:15;95390.72;;;6.52;61.63
55466;BME280;41329;41.594;23.810;2024-01-25T09:05:41;95412.38;;;6.41;59.17
55466;BME280;41329;41.594;23.810;2024-01-25T09:08:12;95406.84;;;5.61;59.81
55466;BME280;41329;41.594;23.810;2024-01-25T09:10:38;95440.03;;;5.15;61.50
55466;BME280;41329;41.594;23.810;2024-01-25T09:13:04;95392.59;;;4.73;63.63
55466;BME280;41329;41.594;23.810;2024-01-25T09:15:29;95440.09;;;5.06;63.10
55466;BME280;41329;41.594;23.810;2024-01-25T09:17:55;95456.19;;;5.28;63.75
55466;BME280;41329;41.594;23.810;2024-01-25T09:20:20;95449.78;;;5.45;63.74
55466;BME280;41329;41.594;23.810;2024-01-25T09:22:45;95476.00;;;5.54;60.89
55466;BME280;41329;41.594;23.810;2024-01-25T09:25:12;95453.06;;;5.38;61.21
55466;BME280;41329;41.594;23.810;2024-01-25T09:27:37;95426.88;;;5.08;61.36
55466;BME280;41329;41.594;23.810;2024-01-25T09:30:05;95411.38;;;5.24;61.73
55466;BME280;41329;41.594;23.810;2024-01-25T09:32:30;95367.09;;;5.14;61.82
55466;BME280;41329;41.594;23.810;2024-01-25T09:34:56;95385.81;;;5.32;62.05
55466;BME280;41329;41.594;23.810;2024-01-25T09:37:21;95353.94;;;5.28;62.73
55466;BME280;41329;41.594;23.810;2024-01-25T09:39:50;95336.31;;;5.29;62.98
55466;BME280;41329;41.594;23.810;2024-01-25T09:42:17;95356.38;;;5.53;62.94
55466;BME280;41329;41.594;23.810;2024-01-25T09:44:43;95367.44;;;5.77;63.01
55466;BME280;41329;41.594;23.810;2024-01-25T09:47:08;95376.47;;;5.78;61.02
55466;BME280;41329;41.594;23.810;2024-01-25T09:49:34;95358.88;;;5.34;61.22
55466;BME280;41329;41.594;23.810;2024-01-25T09:52:01;95365.72;;;5.40;60.70
55466;BME280;41329;41.594;23.810;2024-01-25T09:54:31;95365.31;;;5.62;61.28
55466;BME280;41329;41.594;23.810;2024-01-25T09:56:58;95351.75;;;5.66;60.33
55466;BME280;41329;41.594;23.810;2024-01-25T09:59:25;95391.22;;;5.73;59.80
55466;BME280;41329;41.594;23.810;2024-01-25T10:01:51;95371.56;;;5.83;60.07
55466;BME280;41329;41.594;23.810;2024-01-25T10:04:16;95348.94;;;5.98;61.12
55466;BME280;41329;41.594;23.810;2024-01-25T10:06:44;95338.56;;;6.16;62.42
55466;BME280;41329;41.594;23.810;2024-01-25T10:09:10;95326.50;;;6.44;61.88
55466;BME280;41329;41.594;23.810;2024-01-25T10:11:35;95339.38;;;6.80;60.74
55466;BME280;41329;41.594;23.810;2024-01-25T10:14:02;95325.00;;;6.99;59.84
55466;BME280;41329;41.594;23.810;2024-01-25T10:16:29;95292.03;;;7.14;61.64
55466;BME280;41329;41.594;23.810;2024-01-25T10:18:54;95276.59;;;7.53;65.42
55466;BME280;41329;41.594;23.810;2024-01-25T10:21:20;95284.84;;;8.15;61.13
55466;BME280;41329;41.594;23.810;2024-01-25T10:23:46;95225.06;;;8.50;57.66
55466;BME280;41329;41.594;23.810;2024-01-25T10:26:12;95263.88;;;9.36;56.15
55466;BME280;41329;41.594;23.810;2024-01-25T10:28:37;95286.69;;;9.97;51.05
55466;BME280;41329;41.594;23.810;2024-01-25T10:31:03;95280.84;;;10.47;48.96
55466;BME280;41329;41.594;23.810;2024-01-25T10:33:33;95290.72;;;11.00;44.87
55466;BME280;41329;41.594;23.810;2024-01-25T10:35:59;95271.63;;;11.25;44.05
55466;BME280;41329;41.594;23.810;2024-01-25T10:38:32;95277.78;;;11.44;41.88
55466;BME280;41329;41.594;23.810;2024-01-25T10:41:02;95281.19;;;11.60;40.41
55466;BME280;41329;41.594;23.810;2024-01-25T10:43:29;95303.13;;;11.76;40.13
55466;BME280;41329;41.594;23.810;2024-01-25T10:45:58;95286.69;;;11.93;40.74
55466;BME280;41329;41.594;23.810;2024-01-25T10:48:28;95269.06;;;12.15;40.15
55466;BME280;41329;41.594;23.810;2024-01-25T10:50:55;95271.25;;;12.43;38.62
55466;BME280;41329;41.594;23.810;2024-01-25T10:53:24;95259.91;;;12.62;38.02
55466;BME280;41329;41.594;23.810;2024-01-25T10:55:51;95252.47;;;12.73;37.56
55466;BME280;41329;41.594;23.810;2024-01-25T10:58:16;95243.66;;;12.61;36.19
55466;BME280;41329;41.594;23.810;2024-01-25T11:00:52;95254.66;;;12.47;35.61
55466;BME280;41329;41.594;23.810;2024-01-25T11:03:27;95264.59;;;12.51;36.82
55466;BME280;41329;41.594;23.810;2024-01-25T11:06:09;95271.09;;;12.73;36.69
55466;BME280;41329;41.594;23.810;2024-01-25T11:08:44;95254.66;;;13.04;36.66
55466;BME280;41329;41.594;23.810;2024-01-25T11:11:13;95239.66;;;13.19;36.07
55466;BME280;41329;41.594;23.810;2024-01-25T11:13:43;95235.25;;;13.18;35.30
55466;BME280;41329;41.594;23.810;2024-01-25T11:16:12;95240.81;;;13.15;35.78
55466;BME280;41329;41.594;23.810;2024-01-25T11:18:50;95199.47;;;13.03;34.62
55466;BME280;41329;41.594;23.810;2024-01-25T11:21:37;95222.13;;;13.12;34.37
55466;BME280;41329;41.594;23.810;2024-01-25T11:24:03;95241.13;;;12.99;34.58
55466;BME280;41329;41.594;23.810;2024-01-25T11:26:31;95226.72;;;12.80;34.74
55466;BME280;41329;41.594;23.810;2024-01-25T11:28:57;95240.16;;;12.74;35.00
55466;BME280;41329;41.594;23.810;2024-01-25T11:31:25;95249.19;;;12.57;35.17
55466;BME280;41329;41.594;23.810;2024-01-25T11:33:51;95236.28;;;12.28;35.08
55466;BME280;41329;41.594;23.810;2024-01-25T11:36:20;95244.66;;;12.35;36.07
55466;BME280;41329;41.594;23.810;2024-01-25T11:38:46;95234.88;;;12.55;35.43
55466;BME280;41329;41.594;23.810;2024-01-25T11:41:11;95232.16;;;12.66;34.77
55466;BME280;41329;41.594;23.810;2024-01-25T11:43:37;95240.84;;;12.57;35.32
55466;BME280;41329;41.594;23.810;2024-01-25T11:46:02;95232.06;;;12.48;35.26
55466;BME280;41329;41.594;23.810;2024-01-25T11:48:29;95227.69;;;12.47;35.32
55466;BME280;41329;41.594;23.810;2024-01-25T11:50:54;95232.06;;;12.48;35.86
55466;BME280;41329;41.594;23.810;2024-01-25T11:53:20;95190.69;;;12.25;35.34
55466;BME280;41329;41.594;23.810;2024-01-25T11:55:46;95201.00;;;12.28;35.40
55466;BME280;41329;41.594;23.810;2024-01-25T11:58:11;95175.97;;;12.18;35.40
55466;BME280;41329;41.594;23.810;2024-01-25T12:00:37;95217.00;;;12.46;35.54
55466;BME280;41329;41.594;23.810;2024-01-25T12:03:03;95225.28;;;12.42;35.58
55466;BME280;41329;41.594;23.810;2024-01-25T12:05:29;95211.47;;;12.49;34.64
55466;BME280;41329;41.594;23.810;2024-01-25T12:07:54;95232.50;;;12.53;35.15
55466;BME280;41329;41.594;23.810;2024-01-25T12:10:19;95200.28;;;12.35;34.43
55466;BME280;41329;41.594;23.810;2024-01-25T12:12:45;95237.66;;;12.55;34.34
55466;BME280;41329;41.594;23.810;2024-01-25T12:15:10;95215.72;;;12.36;34.46
55466;BME280;41329;41.594;23.810;2024-01-25T12:17:36;95247.38;;;12.24;34.91
55466;BME280;41329;41.594;23.810;2024-01-25T12:20:03;95257.28;;;12.29;34.94
55466;BME280;41329;41.594;23.810;2024-01-25T12:22:29;95220.25;;;12.07;34.84
55466;BME280;41329;41.594;23.810;2024-01-25T12:24:56;95225.41;;;12.05;35.31
55466;BME280;41329;41.594;23.810;2024-01-25T12:27:24;95249.16;;;12.06;35.53
55466;BME280;41329;41.594;23.810;2024-01-25T12:29:53;95252.78;;;12.10;35.14
55466;BME280;41329;41.594;23.810;2024-01-25T12:32:22;95228.38;;;11.86;35.74
55466;BME280;41329;41.594;23.810;2024-01-25T12:34:58;95263.84;;;12.07;35.89
55466;BME280;41329;41.594;23.810;2024-01-25T12:37:23;95233.25;;;12.00;35.66
55466;BME280;41329;41.594;23.810;2024-01-25T12:39:52;95263.31;;;11.94;35.44
55466;BME280;41329;41.594;23.810;2024-01-25T12:42:19;95247.28;;;11.74;35.71
55466;BME280;41329;41.594;23.810;2024-01-25T12:44:44;95284.34;;;11.95;35.59
55466;BME280;41329;41.594;23.810;2024-01-25T12:47:11;95281.78;;;11.80;35.83
55466;BME280;41329;41.594;23.810;2024-01-25T12:49:42;95265.31;;;11.57;36.57
55466;BME280;41329;41.594;23.810;2024-01-25T12:52:09;95292.03;;;11.76;36.52